Terminal Aerodrome Forecast
Issued by NWS Amarillo, TX

Home | Current Version | Previous Version | Text Only | Print | Product List | Glossary On
Versions: 1 2 3 4 5 6 7 8 9 10 11 12 13 14 15
000
FTUS44 KAMA 252320
TAFGUY
TAF
KGUY 252320Z 2600/2624 23015G23KT P6SM BKN250
     FM260200 24012KT P6SM BKN250
     FM260800 33015KT P6SM SCT150
     FM261700 02008KT P6SM SCT100
     FM262100 15008KT P6SM SCT100=

USA.gov is the U.S. government's official web portal to all federal, state and local government web resources and services.